sensor_id;sensor_type;location;lat;lon;timestamp;temperature;humidity
33955;DHT22;20233;50.804;7.126;2023-05-16T00:00:15;12.70;99.90
33955;DHT22;20233;50.804;7.126;2023-05-16T00:02:41;12.50;99.90
33955;DHT22;20233;50.804;7.126;2023-05-16T00:05:07;12.70;99.90
33955;DHT22;20233;50.804;7.126;2023-05-16T00:07:35;12.70;99.90
33955;DHT22;20233;50.804;7.126;2023-05-16T00:10:01;12.60;99.90
33955;DHT22;20233;50.804;7.126;2023-05-16T00:12:27;12.40;99.90
33955;DHT22;20233;50.804;7.126;2023-05-16T00:14:53;12.10;99.90
33955;DHT22;20233;50.804;7.126;2023-05-16T00:17:20;12.20;99.90
33955;DHT22;20233;50.804;7.126;2023-05-16T00:19:46;12.40;99.90
33955;DHT22;20233;50.804;7.126;2023-05-16T00:22:14;12.30;99.90
33955;DHT22;20233;50.804;7.126;2023-05-16T00:24:40;12.10;99.90
33955;DHT22;20233;50.804;7.126;2023-05-16T00:27:06;12.10;99.90
33955;DHT22;20233;50.804;7.126;2023-05-16T00:29:33;12.20;99.90
33955;DHT22;20233;50.804;7.126;2023-05-16T00:31:58;12.00;99.90
33955;DHT22;20233;50.804;7.126;2023-05-16T00:34:24;11.80;99.90
33955;DHT22;20233;50.804;7.126;2023-05-16T00:36:49;11.90;99.90
33955;DHT22;20233;50.804;7.126;2023-05-16T00:39:15;12.00;99.90
33955;DHT22;20233;50.804;7.126;2023-05-16T00:41:41;11.80;99.90
33955;DHT22;20233;50.804;7.126;2023-05-16T00:44:06;11.90;99.90
33955;DHT22;20233;50.804;7.126;2023-05-16T00:46:32;11.60;99.90
33955;DHT22;20233;50.804;7.126;2023-05-16T00:48:58;11.70;99.90
33955;DHT22;20233;50.804;7.126;2023-05-16T00:51:24;11.90;99.90
33955;DHT22;20233;50.804;7.126;2023-05-16T00:53:50;12.00;99.90
33955;DHT22;20233;50.804;7.126;2023-05-16T00:56:16;12.20;99.90
33955;DHT22;20233;50.804;7.126;2023-05-16T00:58:42;12.10;99.90
33955;DHT22;20233;50.804;7.126;2023-05-16T01:01:08;11.90;99.90
33955;DHT22;20233;50.804;7.126;2023-05-16T01:03:34;12.10;99.90
33955;DHT22;20233;50.804;7.126;2023-05-16T01:06:00;12.00;99.90
33955;DHT22;20233;50.804;7.126;2023-05-16T01:08:26;12.00;99.90
33955;DHT22;20233;50.804;7.126;2023-05-16T01:11:03;11.90;99.90
33955;DHT22;20233;50.804;7.126;2023-05-16T01:13:52;11.70;99.90
33955;DHT22;20233;50.804;7.126;2023-05-16T01:19:13;11.60;99.90
33955;DHT22;20233;50.804;7.126;2023-05-16T01:21:48;11.80;99.90
33955;DHT22;20233;50.804;7.126;2023-05-16T01:24:33;11.70;99.90
33955;DHT22;20233;50.804;7.126;2023-05-16T01:26:59;11.90;99.90
33955;DHT22;20233;50.804;7.126;2023-05-16T01:29:27;12.00;99.90
33955;DHT22;20233;50.804;7.126;2023-05-16T01:31:52;11.60;99.90
33955;DHT22;20233;50.804;7.126;2023-05-16T01:34:18;11.60;99.90
33955;DHT22;20233;50.804;7.126;2023-05-16T01:42:13;11.60;99.90
33955;DHT22;20233;50.804;7.126;2023-05-16T01:44:49;11.40;99.90
33955;DHT22;20233;50.804;7.126;2023-05-16T01:47:16;11.40;99.90
33955;DHT22;20233;50.804;7.126;2023-05-16T01:49:50;11.20;99.90
33955;DHT22;20233;50.804;7.126;2023-05-16T01:52:31;11.00;99.90
33955;DHT22;20233;50.804;7.126;2023-05-16T01:54:58;10.90;99.90
33955;DHT22;20233;50.804;7.126;2023-05-16T01:57:26;10.90;99.90
33955;DHT22;20233;50.804;7.126;2023-05-16T01:59:56;10.80;99.90
33955;DHT22;20233;50.804;7.126;2023-05-16T02:02:22;10.90;99.90
33955;DHT22;20233;50.804;7.126;2023-05-16T02:04:47;10.80;99.90
33955;DHT22;20233;50.804;7.126;2023-05-16T02:07:13;10.80;99.90
33955;DHT22;20233;50.804;7.126;2023-05-16T02:09:39;10.70;99.90
33955;DHT22;20233;50.804;7.126;2023-05-16T02:12:05;10.70;99.90
33955;DHT22;20233;50.804;7.126;2023-05-16T02:14:31;10.60;99.90
33955;DHT22;20233;50.804;7.126;2023-05-16T02:16:56;10.70;99.90
33955;DHT22;20233;50.804;7.126;2023-05-16T02:19:22;10.60;99.90
33955;DHT22;20233;50.804;7.126;2023-05-16T02:21:48;10.60;99.90
33955;DHT22;20233;50.804;7.126;2023-05-16T02:24:14;10.60;99.90
33955;DHT22;20233;50.804;7.126;2023-05-16T02:26:39;10.60;99.90
33955;DHT22;20233;50.804;7.126;2023-05-16T02:29:05;10.60;99.90
33955;DHT22;20233;50.804;7.126;2023-05-16T02:31:32;10.50;99.90
33955;DHT22;20233;50.804;7.126;2023-05-16T02:33:59;10.50;99.90
33955;DHT22;20233;50.804;7.126;2023-05-16T02:36:25;10.40;99.90
33955;DHT22;20233;50.804;7.126;2023-05-16T02:38:51;10.40;99.90
33955;DHT22;20233;50.804;7.126;2023-05-16T02:41:16;10.30;99.90
33955;DHT22;20233;50.804;7.126;2023-05-16T02:43:42;10.40;99.90
33955;DHT22;20233;50.804;7.126;2023-05-16T02:46:29;10.20;99.90
33955;DHT22;20233;50.804;7.126;2023-05-16T02:48:55;10.10;99.90
33955;DHT22;20233;50.804;7.126;2023-05-16T02:51:22;10.10;99.90
33955;DHT22;20233;50.804;7.126;2023-05-16T02:53:49;10.00;99.90
33955;DHT22;20233;50.804;7.126;2023-05-16T02:56:14;9.90;99.90
33955;DHT22;20233;50.804;7.126;2023-05-16T02:58:40;9.90;99.90
33955;DHT22;20233;50.804;7.126;2023-05-16T03:01:06;9.90;99.90
33955;DHT22;20233;50.804;7.126;2023-05-16T03:03:32;9.90;99.90
33955;DHT22;20233;50.804;7.126;2023-05-16T03:06:00;9.80;99.90
33955;DHT22;20233;50.804;7.126;2023-05-16T03:08:25;9.80;99.90
33955;DHT22;20233;50.804;7.126;2023-05-16T03:10:51;9.70;99.90
33955;DHT22;20233;50.804;7.126;2023-05-16T03:13:17;9.70;99.90
33955;DHT22;20233;50.804;7.126;2023-05-16T03:15:42;9.60;99.90
33955;DHT22;20233;50.804;7.126;2023-05-16T03:18:08;9.50;99.90
33955;DHT22;20233;50.804;7.126;2023-05-16T03:20:34;9.40;99.90
33955;DHT22;20233;50.804;7.126;2023-05-16T03:23:00;9.40;99.90
33955;DHT22;20233;50.804;7.126;2023-05-16T03:25:25;9.30;99.90
33955;DHT22;20233;50.804;7.126;2023-05-16T03:27:51;9.30;99.90
33955;DHT22;20233;50.804;7.126;2023-05-16T03:30:18;9.30;99.90
33955;DHT22;20233;50.804;7.126;2023-05-16T03:32:44;9.20;99.90
33955;DHT22;20233;50.804;7.126;2023-05-16T03:35:10;9.20;99.90
33955;DHT22;20233;50.804;7.126;2023-05-16T03:37:37;9.30;99.90
33955;DHT22;20233;50.804;7.126;2023-05-16T03:40:04;9.20;99.90
33955;DHT22;20233;50.804;7.126;2023-05-16T03:42:30;9.30;99.90
33955;DHT22;20233;50.804;7.126;2023-05-16T03:44:56;9.20;99.90
33955;DHT22;20233;50.804;7.126;2023-05-16T03:47:22;9.20;99.90
33955;DHT22;20233;50.804;7.126;2023-05-16T03:49:48;9.20;99.90
33955;DHT22;20233;50.804;7.126;2023-05-16T03:52:13;9.20;99.90
33955;DHT22;20233;50.804;7.126;2023-05-16T03:54:39;9.20;99.90
33955;DHT22;20233;50.804;7.126;2023-05-16T03:57:05;9.20;99.90
33955;DHT22;20233;50.804;7.126;2023-05-16T03:59:30;9.20;99.90
33955;DHT22;20233;50.804;7.126;2023-05-16T04:01:56;9.10;99.90
33955;DHT22;20233;50.804;7.126;2023-05-16T04:04:21;9.20;99.90
33955;DHT22;20233;50.804;7.126;2023-05-16T04:06:47;9.20;99.90
33955;DHT22;20233;50.804;7.126;2023-05-16T04:09:12;9.20;99.90
33955;DHT22;20233;50.804;7.126;2023-05-16T04:11:38;9.20;99.90
33955;DHT22;20233;50.804;7.126;2023-05-16T04:14:05;9.20;99.90
33955;DHT22;20233;50.804;7.126;2023-05-16T04:16:31;9.10;99.90
33955;DHT22;20233;50.804;7.126;2023-05-16T04:18:57;9.30;99.90
33955;DHT22;20233;50.804;7.126;2023-05-16T04:21:23;9.20;99.90
33955;DHT22;20233;50.804;7.126;2023-05-16T04:23:49;9.20;99.90
33955;DHT22;20233;50.804;7.126;2023-05-16T04:26:14;9.20;99.90
33955;DHT22;20233;50.804;7.126;2023-05-16T04:28:41;9.20;99.90
33955;DHT22;20233;50.804;7.126;2023-05-16T04:31:07;9.10;99.90
33955;DHT22;20233;50.804;7.126;2023-05-16T04:33:33;9.10;99.90
33955;DHT22;20233;50.804;7.126;2023-05-16T04:35:59;9.10;99.90
33955;DHT22;20233;50.804;7.126;2023-05-16T04:38:24;9.10;99.90
33955;DHT22;20233;50.804;7.126;2023-05-16T04:40:50;9.10;99.90
33955;DHT22;20233;50.804;7.126;2023-05-16T04:43:18;9.10;99.90
33955;DHT22;20233;50.804;7.126;2023-05-16T04:45:44;9.10;99.90
33955;DHT22;20233;50.804;7.126;2023-05-16T04:48:09;9.10;99.90
33955;DHT22;20233;50.804;7.126;2023-05-16T04:50:36;9.10;99.90
33955;DHT22;20233;50.804;7.126;2023-05-16T04:53:02;9.10;99.90
33955;DHT22;20233;50.804;7.126;2023-05-16T04:55:27;9.10;99.90
33955;DHT22;20233;50.804;7.126;2023-05-16T04:57:53;9.00;99.90
33955;DHT22;20233;50.804;7.126;2023-05-16T05:00:18;9.00;99.90
33955;DHT22;20233;50.804;7.126;2023-05-16T05:02:45;9.00;99.90
33955;DHT22;20233;50.804;7.126;2023-05-16T05:05:11;9.10;99.90
33955;DHT22;20233;50.804;7.126;2023-05-16T05:07:36;9.00;99.90
33955;DHT22;20233;50.804;7.126;2023-05-16T05:10:02;9.00;99.90
33955;DHT22;20233;50.804;7.126;2023-05-16T05:12:28;9.00;99.90
33955;DHT22;20233;50.804;7.126;2023-05-16T05:14:54;8.90;99.90
33955;DHT22;20233;50.804;7.126;2023-05-16T05:17:19;8.90;99.90
33955;DHT22;20233;50.804;7.126;2023-05-16T05:19:47;8.90;99.90
33955;DHT22;20233;50.804;7.126;2023-05-16T05:22:13;8.90;99.90
33955;DHT22;20233;50.804;7.126;2023-05-16T05:24:40;8.90;99.90
33955;DHT22;20233;50.804;7.126;2023-05-16T05:27:07;8.90;99.90
33955;DHT22;20233;50.804;7.126;2023-05-16T05:29:32;8.90;99.90
33955;DHT22;20233;50.804;7.126;2023-05-16T05:31:58;8.90;99.90
33955;DHT22;20233;50.804;7.126;2023-05-16T05:34:23;8.90;99.90
33955;DHT22;20233;50.804;7.126;2023-05-16T05:36:49;9.00;99.90
33955;DHT22;20233;50.804;7.126;2023-05-16T05:39:15;8.90;99.90
33955;DHT22;20233;50.804;7.126;2023-05-16T05:41:40;8.90;99.90
33955;DHT22;20233;50.804;7.126;2023-05-16T05:44:06;9.00;99.90
33955;DHT22;20233;50.804;7.126;2023-05-16T05:46:32;8.90;99.90
33955;DHT22;20233;50.804;7.126;2023-05-16T05:48:58;9.00;99.90
33955;DHT22;20233;50.804;7.126;2023-05-16T05:51:24;9.00;99.90
33955;DHT22;20233;50.804;7.126;2023-05-16T05:53:51;9.10;99.90
33955;DHT22;20233;50.804;7.126;2023-05-16T05:56:17;9.10;99.90
33955;DHT22;20233;50.804;7.126;2023-05-16T05:58:43;9.10;99.90
33955;DHT22;20233;50.804;7.126;2023-05-16T06:01:10;9.10;99.90
33955;DHT22;20233;50.804;7.126;2023-05-16T06:03:36;9.10;99.90
33955;DHT22;20233;50.804;7.126;2023-05-16T06:06:02;9.10;99.90
33955;DHT22;20233;50.804;7.126;2023-05-16T06:08:28;9.10;99.90
33955;DHT22;20233;50.804;7.126;2023-05-16T06:10:53;9.10;99.90
33955;DHT22;20233;50.804;7.126;2023-05-16T06:13:19;8.90;99.90
33955;DHT22;20233;50.804;7.126;2023-05-16T06:15:52;9.00;99.90
33955;DHT22;20233;50.804;7.126;2023-05-16T06:18:18;9.10;99.90
33955;DHT22;20233;50.804;7.126;2023-05-16T06:20:44;9.00;99.90
33955;DHT22;20233;50.804;7.126;2023-05-16T06:23:09;9.00;99.90
33955;DHT22;20233;50.804;7.126;2023-05-16T06:25:35;8.90;99.90
33955;DHT22;20233;50.804;7.126;2023-05-16T06:28:01;9.10;99.90
33955;DHT22;20233;50.804;7.126;2023-05-16T06:30:27;9.20;99.90
33955;DHT22;20233;50.804;7.126;2023-05-16T06:32:53;9.30;99.90
33955;DHT22;20233;50.804;7.126;2023-05-16T06:35:18;9.40;99.90
33955;DHT22;20233;50.804;7.126;2023-05-16T06:37:44;9.40;99.90
33955;DHT22;20233;50.804;7.126;2023-05-16T06:40:10;9.30;99.90
33955;DHT22;20233;50.804;7.126;2023-05-16T06:42:35;9.40;99.90
33955;DHT22;20233;50.804;7.126;2023-05-16T06:45:01;9.40;99.90
33955;DHT22;20233;50.804;7.126;2023-05-16T06:47:27;9.50;99.90
33955;DHT22;20233;50.804;7.126;2023-05-16T06:49:54;9.60;99.90
33955;DHT22;20233;50.804;7.126;2023-05-16T06:52:21;9.70;99.90
33955;DHT22;20233;50.804;7.126;2023-05-16T06:54:46;9.60;99.90
33955;DHT22;20233;50.804;7.126;2023-05-16T06:57:12;9.70;99.90
33955;DHT22;20233;50.804;7.126;2023-05-16T06:59:38;9.80;99.90
33955;DHT22;20233;50.804;7.126;2023-05-16T07:02:04;9.90;99.90
33955;DHT22;20233;50.804;7.126;2023-05-16T07:04:30;10.00;99.90
33955;DHT22;20233;50.804;7.126;2023-05-16T07:06:57;10.00;99.90
33955;DHT22;20233;50.804;7.126;2023-05-16T07:09:22;10.00;99.90
33955;DHT22;20233;50.804;7.126;2023-05-16T07:11:48;10.10;99.90
33955;DHT22;20233;50.804;7.126;2023-05-16T07:14:13;10.10;99.90
33955;DHT22;20233;50.804;7.126;2023-05-16T07:16:39;10.00;99.90
33955;DHT22;20233;50.804;7.126;2023-05-16T07:19:05;10.10;99.90
33955;DHT22;20233;50.804;7.126;2023-05-16T07:21:30;10.20;99.90
33955;DHT22;20233;50.804;7.126;2023-05-16T07:23:58;10.30;99.90
33955;DHT22;20233;50.804;7.126;2023-05-16T07:26:23;10.50;99.90
33955;DHT22;20233;50.804;7.126;2023-05-16T07:28:49;10.70;99.90
33955;DHT22;20233;50.804;7.126;2023-05-16T07:31:15;10.80;99.90
33955;DHT22;20233;50.804;7.126;2023-05-16T07:33:42;10.80;99.90
33955;DHT22;20233;50.804;7.126;2023-05-16T07:36:08;10.60;99.90
33955;DHT22;20233;50.804;7.126;2023-05-16T07:38:33;10.50;99.90
33955;DHT22;20233;50.804;7.126;2023-05-16T07:41:00;10.30;99.90
33955;DHT22;20233;50.804;7.126;2023-05-16T07:43:25;10.60;99.90
33955;DHT22;20233;50.804;7.126;2023-05-16T07:45:51;10.50;99.90
33955;DHT22;20233;50.804;7.126;2023-05-16T07:48:17;10.40;99.90
33955;DHT22;20233;50.804;7.126;2023-05-16T07:50:43;10.50;99.90
33955;DHT22;20233;50.804;7.126;2023-05-16T07:53:08;10.50;99.90
33955;DHT22;20233;50.804;7.126;2023-05-16T07:55:34;10.30;99.90
33955;DHT22;20233;50.804;7.126;2023-05-16T07:58:02;10.20;99.90
33955;DHT22;20233;50.804;7.126;2023-05-16T08:02:54;10.30;99.90
33955;DHT22;20233;50.804;7.126;2023-05-16T08:05:20;10.30;99.90
33955;DHT22;20233;50.804;7.126;2023-05-16T08:07:45;10.20;99.90
33955;DHT22;20233;50.804;7.126;2023-05-16T08:10:11;10.20;99.90
33955;DHT22;20233;50.804;7.126;2023-05-16T08:12:36;10.40;99.90
33955;DHT22;20233;50.804;7.126;2023-05-16T08:15:03;10.40;99.90
33955;DHT22;20233;50.804;7.126;2023-05-16T08:17:29;10.80;99.90
33955;DHT22;20233;50.804;7.126;2023-05-16T08:19:55;11.00;99.90
33955;DHT22;20233;50.804;7.126;2023-05-16T08:22:21;11.10;99.90
33955;DHT22;20233;50.804;7.126;2023-05-16T08:24:47;11.10;99.90
33955;DHT22;20233;50.804;7.126;2023-05-16T08:27:12;11.50;99.90
33955;DHT22;20233;50.804;7.126;2023-05-16T08:29:38;11.50;99.90
33955;DHT22;20233;50.804;7.126;2023-05-16T08:32:05;11.30;99.90
33955;DHT22;20233;50.804;7.126;2023-05-16T08:34:31;11.50;99.90
33955;DHT22;20233;50.804;7.126;2023-05-16T08:36:57;11.60;99.90
33955;DHT22;20233;50.804;7.126;2023-05-16T08:39:22;11.80;99.90
33955;DHT22;20233;50.804;7.126;2023-05-16T08:41:48;11.90;99.90
33955;DHT22;20233;50.804;7.126;2023-05-16T08:44:14;11.70;99.90
33955;DHT22;20233;50.804;7.126;2023-05-16T08:46:50;11.90;99.90
33955;DHT22;20233;50.804;7.126;2023-05-16T08:49:17;11.80;99.90
33955;DHT22;20233;50.804;7.126;2023-05-16T08:51:42;11.60;99.90
33955;DHT22;20233;50.804;7.126;2023-05-16T08:54:11;11.60;99.90
33955;DHT22;20233;50.804;7.126;2023-05-16T08:56:38;11.70;99.90
33955;DHT22;20233;50.804;7.126;2023-05-16T08:59:06;12.00;99.90
33955;DHT22;20233;50.804;7.126;2023-05-16T09:01:32;12.30;99.90
33955;DHT22;20233;50.804;7.126;2023-05-16T09:03:59;12.20;99.90
33955;DHT22;20233;50.804;7.126;2023-05-16T09:06:25;12.50;99.90
33955;DHT22;20233;50.804;7.126;2023-05-16T09:08:54;12.40;99.90
33955;DHT22;20233;50.804;7.126;2023-05-16T09:11:20;12.20;99.90
33955;DHT22;20233;50.804;7.126;2023-05-16T09:13:47;12.20;99.90
33955;DHT22;20233;50.804;7.126;2023-05-16T09:16:15;12.20;99.90
33955;DHT22;20233;50.804;7.126;2023-05-16T09:18:46;11.90;99.90
33955;DHT22;20233;50.804;7.126;2023-05-16T09:21:17;12.00;99.90
33955;DHT22;20233;50.804;7.126;2023-05-16T09:23:42;12.00;99.90
33955;DHT22;20233;50.804;7.126;2023-05-16T09:26:09;11.90;99.90
33955;DHT22;20233;50.804;7.126;2023-05-16T09:28:37;12.40;99.90
33955;DHT22;20233;50.804;7.126;2023-05-16T09:31:04;12.70;99.90
33955;DHT22;20233;50.804;7.126;2023-05-16T09:33:43;12.60;99.90
33955;DHT22;20233;50.804;7.126;2023-05-16T09:36:09;12.70;99.90
33955;DHT22;20233;50.804;7.126;2023-05-16T09:38:34;12.80;99.90
33955;DHT22;20233;50.804;7.126;2023-05-16T09:41:01;12.80;99.90
33955;DHT22;20233;50.804;7.126;2023-05-16T09:43:26;12.80;99.90
33955;DHT22;20233;50.804;7.126;2023-05-16T09:45:52;12.60;99.90
33955;DHT22;20233;50.804;7.126;2023-05-16T09:48:20;12.90;99.90
33955;DHT22;20233;50.804;7.126;2023-05-16T09:50:54;13.10;99.90
33955;DHT22;20233;50.804;7.126;2023-05-16T09:53:31;13.00;99.90
33955;DHT22;20233;50.804;7.126;2023-05-16T09:56:11;13.00;99.90
33955;DHT22;20233;50.804;7.126;2023-05-16T09:58:39;13.00;99.90
33955;DHT22;20233;50.804;7.126;2023-05-16T10:01:05;12.70;99.90
33955;DHT22;20233;50.804;7.126;2023-05-16T10:03:34;12.90;99.90
33955;DHT22;20233;50.804;7.126;2023-05-16T10:06:00;13.00;99.90
33955;DHT22;20233;50.804;7.126;2023-05-16T10:08:26;12.60;99.90
33955;DHT22;20233;50.804;7.126;2023-05-16T10:10:53;13.00;99.90
33955;DHT22;20233;50.804;7.126;2023-05-16T10:13:26;13.30;99.90
33955;DHT22;20233;50.804;7.126;2023-05-16T10:15:54;12.90;99.90
33955;DHT22;20233;50.804;7.126;2023-05-16T10:18:21;12.80;99.90
33955;DHT22;20233;50.804;7.126;2023-05-16T10:20:48;12.90;99.90
33955;DHT22;20233;50.804;7.126;2023-05-16T10:23:18;12.90;99.90
33955;DHT22;20233;50.804;7.126;2023-05-16T10:25:45;13.20;99.90
33955;DHT22;20233;50.804;7.126;2023-05-16T10:28:14;13.40;99.90
33955;DHT22;20233;50.804;7.126;2023-05-16T10:30:42;13.20;99.90
33955;DHT22;20233;50.804;7.126;2023-05-16T10:33:14;13.10;99.90
33955;DHT22;20233;50.804;7.126;2023-05-16T10:35:41;13.00;99.90
33955;DHT22;20233;50.804;7.126;2023-05-16T10:38:07;12.90;99.90
33955;DHT22;20233;50.804;7.126;2023-05-16T10:40:35;13.50;99.90
33955;DHT22;20233;50.804;7.126;2023-05-16T10:43:05;13.20;99.90
33955;DHT22;20233;50.804;7.126;2023-05-16T10:45:32;13.60;99.90
33955;DHT22;20233;50.804;7.126;2023-05-16T10:48:00;13.60;99.90
33955;DHT22;20233;50.804;7.126;2023-05-16T10:50:33;14.00;99.90
33955;DHT22;20233;50.804;7.126;2023-05-16T10:53:29;13.90;99.90
33955;DHT22;20233;50.804;7.126;2023-05-16T11:01:21;14.30;99.90
33955;DHT22;20233;50.804;7.126;2023-05-16T11:06:43;13.70;99.90
33955;DHT22;20233;50.804;7.126;2023-05-16T11:11:44;13.60;99.90
33955;DHT22;20233;50.804;7.126;2023-05-16T11:14:39;13.50;99.90
33955;DHT22;20233;50.804;7.126;2023-05-16T11:17:20;13.90;99.90
33955;DHT22;20233;50.804;7.126;2023-05-16T11:19:57;14.20;99.90
33955;DHT22;20233;50.804;7.126;2023-05-16T11:22:31;14.20;99.90
33955;DHT22;20233;50.804;7.126;2023-05-16T11:25:05;14.20;99.90
33955;DHT22;20233;50.804;7.126;2023-05-16T11:27:33;14.30;99.90
33955;DHT22;20233;50.804;7.126;2023-05-16T11:32:36;13.90;99.90
33955;DHT22;20233;50.804;7.126;2023-05-16T11:35:02;14.00;99.90
33955;DHT22;20233;50.804;7.126;2023-05-16T11:37:28;14.50;99.90
33955;DHT22;20233;50.804;7.126;2023-05-16T11:40:01;14.60;99.90
33955;DHT22;20233;50.804;7.126;2023-05-16T11:42:39;14.40;99.90
33955;DHT22;20233;50.804;7.126;2023-05-16T11:45:10;14.30;99.90
33955;DHT22;20233;50.804;7.126;2023-05-16T11:47:40;14.30;99.90
33955;DHT22;20233;50.804;7.126;2023-05-16T11:50:10;14.20;99.90
33955;DHT22;20233;50.804;7.126;2023-05-16T11:52:37;14.30;99.90
33955;DHT22;20233;50.804;7.126;2023-05-16T11:55:07;14.40;99.90
33955;DHT22;20233;50.804;7.126;2023-05-16T11:57:35;14.60;99.90
33955;DHT22;20233;50.804;7.126;2023-05-16T12:00:02;14.70;99.90
33955;DHT22;20233;50.804;7.126;2023-05-16T12:02:28;14.90;99.90
33955;DHT22;20233;50.804;7.126;2023-05-16T12:04:54;14.60;99.90
33955;DHT22;20233;50.804;7.126;2023-05-16T12:07:27;14.90;99.90
33955;DHT22;20233;50.804;7.126;2023-05-16T12:09:52;14.90;99.90
33955;DHT22;20233;50.804;7.126;2023-05-16T12:12:19;14.90;99.90
33955;DHT22;20233;50.804;7.126;2023-05-16T12:14:47;14.60;99.90
33955;DHT22;20233;50.804;7.126;2023-05-16T12:17:13;14.20;99.90
33955;DHT22;20233;50.804;7.126;2023-05-16T12:19:38;14.00;99.90
33955;DHT22;20233;50.804;7.126;2023-05-16T12:22:04;14.00;99.90
33955;DHT22;20233;50.804;7.126;2023-05-16T12:24:39;13.80;99.90
33955;DHT22;20233;50.804;7.126;2023-05-16T12:27:07;14.20;99.90
33955;DHT22;20233;50.804;7.126;2023-05-16T12:29:33;14.30;99.90
33955;DHT22;20233;50.804;7.126;2023-05-16T12:31:59;14.40;99.90
33955;DHT22;20233;50.804;7.126;2023-05-16T12:34:28;14.40;99.90
33955;DHT22;20233;50.804;7.126;2023-05-16T12:36:54;14.30;99.90
33955;DHT22;20233;50.804;7.126;2023-05-16T12:39:20;14.00;99.90
33955;DHT22;20233;50.804;7.126;2023-05-16T12:41:47;14.40;99.90
33955;DHT22;20233;50.804;7.126;2023-05-16T12:44:15;14.70;99.90
33955;DHT22;20233;50.804;7.126;2023-05-16T12:46:43;14.70;99.90
33955;DHT22;20233;50.804;7.126;2023-05-16T12:49:08;14.90;99.90
33955;DHT22;20233;50.804;7.126;2023-05-16T12:51:34;15.30;99.90
33955;DHT22;20233;50.804;7.126;2023-05-16T12:54:10;15.30;99.90
33955;DHT22;20233;50.804;7.126;2023-05-16T12:56:42;15.70;99.90
33955;DHT22;20233;50.804;7.126;2023-05-16T12:59:09;15.80;99.90
33955;DHT22;20233;50.804;7.126;2023-05-16T13:01:36;15.60;99.90
33955;DHT22;20233;50.804;7.126;2023-05-16T13:04:02;15.10;99.90
33955;DHT22;20233;50.804;7.126;2023-05-16T13:06:28;15.40;99.90
33955;DHT22;20233;50.804;7.126;2023-05-16T13:08:54;15.20;99.90
33955;DHT22;20233;50.804;7.126;2023-05-16T13:11:20;15.40;99.90
33955;DHT22;20233;50.804;7.126;2023-05-16T13:13:45;15.40;99.90
33955;DHT22;20233;50.804;7.126;2023-05-16T13:16:11;15.80;99.90
33955;DHT22;20233;50.804;7.126;2023-05-16T13:18:36;15.80;99.90
33955;DHT22;20233;50.804;7.126;2023-05-16T13:21:02;15.30;99.90
33955;DHT22;20233;50.804;7.126;2023-05-16T13:23:31;15.00;99.90
33955;DHT22;20233;50.804;7.126;2023-05-16T13:25:57;14.70;99.90
33955;DHT22;20233;50.804;7.126;2023-05-16T13:28:23;14.30;99.90
33955;DHT22;20233;50.804;7.126;2023-05-16T13:30:49;14.10;99.90
33955;DHT22;20233;50.804;7.126;2023-05-16T13:33:16;14.30;99.90
33955;DHT22;20233;50.804;7.126;2023-05-16T13:35:42;14.20;99.90
33955;DHT22;20233;50.804;7.126;2023-05-16T13:38:08;14.00;99.90
33955;DHT22;20233;50.804;7.126;2023-05-16T13:40:34;14.40;99.90
33955;DHT22;20233;50.804;7.126;2023-05-16T13:43:00;14.50;99.90
33955;DHT22;20233;50.804;7.126;2023-05-16T13:45:27;14.30;99.90
33955;DHT22;20233;50.804;7.126;2023-05-16T13:47:52;14.30;99.90
33955;DHT22;20233;50.804;7.126;2023-05-16T13:50:18;14.50;99.90
33955;DHT22;20233;50.804;7.126;2023-05-16T13:52:44;14.60;99.90
33955;DHT22;20233;50.804;7.126;2023-05-16T13:55:12;14.60;99.90
33955;DHT22;20233;50.804;7.126;2023-05-16T13:57:37;14.80;99.90
33955;DHT22;20233;50.804;7.126;2023-05-16T14:00:03;14.70;99.90
33955;DHT22;20233;50.804;7.126;2023-05-16T14:02:39;14.90;99.90
33955;DHT22;20233;50.804;7.126;2023-05-16T14:05:05;15.00;99.90
33955;DHT22;20233;50.804;7.126;2023-05-16T14:07:33;15.00;99.90
33955;DHT22;20233;50.804;7.126;2023-05-16T14:09:58;15.50;99.90
33955;DHT22;20233;50.804;7.126;2023-05-16T14:12:24;15.30;99.90
33955;DHT22;20233;50.804;7.126;2023-05-16T14:14:49;15.30;99.90
33955;DHT22;20233;50.804;7.126;2023-05-16T14:17:15;15.60;99.90
33955;DHT22;20233;50.804;7.126;2023-05-16T14:19:40;15.40;99.90
33955;DHT22;20233;50.804;7.126;2023-05-16T14:22:06;15.60;99.90
33955;DHT22;20233;50.804;7.126;2023-05-16T14:24:34;15.30;99.90
33955;DHT22;20233;50.804;7.126;2023-05-16T14:26:59;15.40;99.90
33955;DHT22;20233;50.804;7.126;2023-05-16T14:29:26;15.60;99.90
33955;DHT22;20233;50.804;7.126;2023-05-16T14:31:51;15.80;99.90
33955;DHT22;20233;50.804;7.126;2023-05-16T14:36:43;15.80;99.90
33955;DHT22;20233;50.804;7.126;2023-05-16T14:39:08;16.10;99.90
33955;DHT22;20233;50.804;7.126;2023-05-16T14:41:35;15.80;99.90
33955;DHT22;20233;50.804;7.126;2023-05-16T14:44:01;15.70;99.90
33955;DHT22;20233;50.804;7.126;2023-05-16T14:46:27;15.60;99.90
33955;DHT22;20233;50.804;7.126;2023-05-16T14:48:52;15.30;99.90
33955;DHT22;20233;50.804;7.126;2023-05-16T14:51:19;15.30;99.90
33955;DHT22;20233;50.804;7.126;2023-05-16T14:53:46;15.40;99.90
33955;DHT22;20233;50.804;7.126;2023-05-16T14:56:14;15.40;99.90
33955;DHT22;20233;50.804;7.126;2023-05-16T14:58:41;15.70;99.90
33955;DHT22;20233;50.804;7.126;2023-05-16T15:01:07;15.70;99.90
33955;DHT22;20233;50.804;7.126;2023-05-16T15:03:35;15.90;99.90
33955;DHT22;20233;50.804;7.126;2023-05-16T15:06:01;15.90;99.90
33955;DHT22;20233;50.804;7.126;2023-05-16T15:08:30;15.90;99.90
33955;DHT22;20233;50.804;7.126;2023-05-16T15:10:56;16.00;99.90
33955;DHT22;20233;50.804;7.126;2023-05-16T15:13:22;15.50;99.90
33955;DHT22;20233;50.804;7.126;2023-05-16T15:15:50;15.30;99.90
33955;DHT22;20233;50.804;7.126;2023-05-16T15:18:17;15.20;99.90
33955;DHT22;20233;50.804;7.126;2023-05-16T15:20:43;15.20;99.90
33955;DHT22;20233;50.804;7.126;2023-05-16T15:23:09;15.20;99.90
33955;DHT22;20233;50.804;7.126;2023-05-16T15:25:37;15.50;99.90
33955;DHT22;20233;50.804;7.126;2023-05-16T15:28:04;15.60;99.90
33955;DHT22;20233;50.804;7.126;2023-05-16T15:30:30;15.90;99.90
33955;DHT22;20233;50.804;7.126;2023-05-16T15:32:57;15.70;99.90
33955;DHT22;20233;50.804;7.126;2023-05-16T15:35:23;15.70;99.90
33955;DHT22;20233;50.804;7.126;2023-05-16T15:37:49;15.30;99.90
33955;DHT22;20233;50.804;7.126;2023-05-16T15:40:18;15.20;99.90
33955;DHT22;20233;50.804;7.126;2023-05-16T15:42:44;15.50;99.90
33955;DHT22;20233;50.804;7.126;2023-05-16T15:45:12;15.60;99.90
33955;DHT22;20233;50.804;7.126;2023-05-16T15:47:40;15.20;99.90
33955;DHT22;20233;50.804;7.126;2023-05-16T15:50:07;15.10;99.90
33955;DHT22;20233;50.804;7.126;2023-05-16T15:52:33;15.10;99.90
33955;DHT22;20233;50.804;7.126;2023-05-16T15:55:04;15.20;99.90
33955;DHT22;20233;50.804;7.126;2023-05-16T15:57:31;15.20;99.90
33955;DHT22;20233;50.804;7.126;2023-05-16T15:59:57;15.10;99.90